Terminal Aerodrome Forecast
Issued by NWS Green Bay, WI

Home | Current Version | Previous Version | Graphics & Text | Print | Product List | Glossary On
Versions: 1 2 3 4 5 6 7 8 9 10 11 12 13 14 15 16 17 18 19 20 21 22 23 24 25 26 27 28 29 30 31 32
000
FTUS43 KGRB 291700
TAFGRB
TAF
KGRB 291720Z 2918/3018 20020G29KT P6SM OVC015
     FM292100 23020G25KT P6SM OVC025
      TEMPO 2921/2923 4SM -RA BR BKN017
     FM292300 25019G24KT P6SM SCT025 BKN040
     FM300300 27013KT P6SM SCT050
     FM300800 27008KT P6SM SKC=

USA.gov is the U.S. government's official web portal to all federal, state and local government web resources and services.